Weather at Överkalix Airport

Public forecast

Using degrees Celsius for public forecast. Weather courtesy of forecast.io.

Closest aviation weather report (METAR) to Överkalix Airport

Report is more than 6 hours old.

Closest report is Pajala Airport, 46.3 nm (85.7 km) NNE.

2022/11/14 15:20 (retrieved 2 years ago)

ESUP 141520Z AUTO VRB02KT //// // NCD M08/M08 Q1020

Closest aviation forecast (TAF) to Överkalix Airport

Forecast is more than 12 hours old.

Closest forecast is Rovaniemi Airport, 83.2 nm (154.1 km) E.

2023/02/22 18:19 Ammendment (retrieved 1 year ago)

TAF AMD EFRO 221814Z 2218/2318 15007KT 9999 FEW005 TEMPO 2218/2220 4000 -SN BKN004 BECMG 2220/2222 BKN008 TEMPO 2222/2303 BKN004 BECMG 2303/2305 4000 -SN TEMPO 2305/2314 1200 SN BKN012 BECMG 2316/2318 0700 FZFG BKN004